createdAt,value
2023-05-09T00:00:02.287Z,101780
2023-05-09T00:05:00.544Z,101770
2023-05-09T00:10:00.915Z,101770
2023-05-09T00:15:00.602Z,101750
2023-05-09T00:20:01.142Z,101760
2023-05-09T00:25:00.574Z,101750
2023-05-09T00:30:00.627Z,101750
2023-05-09T00:35:00.559Z,101750
2023-05-09T00:40:00.591Z,101750
2023-05-09T00:45:01.344Z,101740
2023-05-09T00:50:01.292Z,101730
2023-05-09T00:55:01.058Z,101730
2023-05-09T01:00:01.313Z,101740
2023-05-09T01:05:00.685Z,101730
2023-05-09T01:10:08.191Z,101720
2023-05-09T01:15:07.399Z,101710
2023-05-09T01:20:11.408Z,101700
2023-05-09T01:25:15.439Z,101690
2023-05-09T01:30:03.541Z,101680
2023-05-09T01:35:02.721Z,101680
2023-05-09T01:40:14.267Z,101680
2023-05-09T01:45:02.534Z,101670
2023-05-09T01:50:03.062Z,101660
2023-05-09T01:55:01.295Z,101660
2023-05-09T02:00:03.735Z,101650
2023-05-09T02:05:01.420Z,101650
2023-05-09T02:10:02.153Z,101640
2023-05-09T02:15:00.669Z,101640
2023-05-09T02:20:00.556Z,101640
2023-05-09T02:25:02.235Z,101640
2023-05-09T02:30:05.374Z,101630
2023-05-09T02:35:02.135Z,101630
2023-05-09T02:40:00.559Z,101640
2023-05-09T02:45:00.569Z,101640
2023-05-09T02:50:00.552Z,101640
2023-05-09T02:55:01.041Z,101630
2023-05-09T03:00:02.065Z,101630
2023-05-09T03:05:00.935Z,101620
2023-05-09T03:10:00.561Z,101610
2023-05-09T03:15:00.571Z,101600
2023-05-09T03:20:03.907Z,101600
2023-05-09T03:25:00.642Z,101600
2023-05-09T03:30:00.594Z,101590
2023-05-09T03:35:00.634Z,101590
2023-05-09T03:40:00.687Z,101570
2023-05-09T03:45:00.552Z,101570
2023-05-09T03:50:00.575Z,101570
2023-05-09T03:55:00.557Z,101570
2023-05-09T04:00:01.621Z,101560
2023-05-09T04:05:00.932Z,101550
2023-05-09T04:10:00.621Z,101540
2023-05-09T04:15:00.574Z,101550
2023-05-09T04:20:00.977Z,101550
2023-05-09T04:25:00.652Z,101550
2023-05-09T04:30:00.538Z,101540
2023-05-09T04:35:00.526Z,101540
2023-05-09T04:40:00.589Z,101530
2023-05-09T04:45:00.853Z,101530
2023-05-09T04:50:00.575Z,101520
2023-05-09T04:55:00.594Z,101520
2023-05-09T05:00:01.876Z,101510
2023-05-09T05:05:10.859Z,101510
2023-05-09T05:10:00.559Z,101500
2023-05-09T05:15:00.570Z,101490
2023-05-09T05:20:00.608Z,101480
2023-05-09T05:25:00.560Z,101480
2023-05-09T05:30:00.525Z,101460
2023-05-09T05:35:00.628Z,101460
2023-05-09T05:40:00.570Z,101450
2023-05-09T05:45:00.652Z,101450
2023-05-09T05:50:01.785Z,101450
2023-05-09T05:55:00.538Z,101450
2023-05-09T06:00:01.061Z,101450
2023-05-09T06:05:00.691Z,101440
2023-05-09T06:10:00.560Z,101440
2023-05-09T06:15:00.667Z,101430
2023-05-09T06:20:00.557Z,101420
2023-05-09T06:25:00.575Z,101420
2023-05-09T06:30:04.190Z,101420
2023-05-09T06:35:00.577Z,101410
2023-05-09T06:40:00.553Z,101410
2023-05-09T06:45:00.640Z,101400
2023-05-09T06:50:00.606Z,101390
2023-05-09T06:55:00.582Z,101400
2023-05-09T07:00:01.171Z,101390
2023-05-09T07:05:00.750Z,101390
2023-05-09T07:10:10.447Z,101380
2023-05-09T07:15:00.567Z,101380
2023-05-09T07:20:00.562Z,101380
2023-05-09T07:25:00.580Z,101370
2023-05-09T07:30:00.734Z,101360
2023-05-09T07:35:00.911Z,101360
2023-05-09T07:40:00.793Z,101360
2023-05-09T07:45:00.626Z,101360
2023-05-09T07:50:00.571Z,101350
2023-05-09T07:55:00.581Z,101350
2023-05-09T08:00:01.141Z,101340
2023-05-09T08:05:00.878Z,101340
2023-05-09T08:10:00.554Z,101330
2023-05-09T08:15:00.579Z,101320
2023-05-09T08:20:00.590Z,101330
2023-05-09T08:25:00.680Z,101320
2023-05-09T08:30:00.616Z,101310
2023-05-09T08:35:00.578Z,101310
2023-05-09T08:40:00.846Z,101300
2023-05-09T08:45:06.051Z,101300
2023-05-09T08:50:02.126Z,101290
2023-05-09T08:55:02.146Z,101280
2023-05-09T09:00:03.086Z,101290
2023-05-09T09:05:00.666Z,101280
2023-05-09T09:10:02.256Z,101280
2023-05-09T09:15:04.059Z,101270
2023-05-09T09:20:04.171Z,101270
2023-05-09T09:25:00.576Z,101270
2023-05-09T09:30:09.340Z,101260
2023-05-09T09:35:05.135Z,101260
2023-05-09T09:40:01.477Z,101260
2023-05-09T09:45:01.560Z,101260
2023-05-09T09:50:11.612Z,101250
2023-05-09T09:55:00.681Z,101250
2023-05-09T10:00:01.071Z,101250
2023-05-09T10:05:08.027Z,101240
2023-05-09T10:10:01.543Z,101230
2023-05-09T10:15:03.235Z,101230
2023-05-09T10:20:03.854Z,101230
2023-05-09T10:25:03.938Z,101230
2023-05-09T10:30:12.552Z,101220
2023-05-09T10:35:04.297Z,101220
2023-05-09T10:40:02.978Z,101200
2023-05-09T10:45:00.866Z,101200
2023-05-09T10:50:00.936Z,101190
2023-05-09T10:55:03.279Z,101180
2023-05-09T11:00:01.982Z,101180
2023-05-09T11:05:12.342Z,101180
2023-05-09T11:10:14.204Z,101170
2023-05-09T11:15:08.256Z,101160
2023-05-09T11:20:04.424Z,101160
2023-05-09T11:25:05.085Z,101150
2023-05-09T11:30:04.777Z,101150
2023-05-09T11:35:05.298Z,101150
2023-05-09T11:40:01.858Z,101140
2023-05-09T11:45:02.904Z,101140
2023-05-09T11:50:00.588Z,101130
2023-05-09T11:55:00.636Z,101130
2023-05-09T12:00:02.382Z,101120
2023-05-09T12:05:12.481Z,101110
2023-05-09T12:10:00.630Z,101110
2023-05-09T12:15:08.308Z,101110
2023-05-09T12:20:00.958Z,101110
2023-05-09T12:25:04.932Z,101100
2023-05-09T12:30:00.752Z,101100
2023-05-09T12:35:00.567Z,101090
2023-05-09T12:40:01.485Z,101080
2023-05-09T12:45:01.922Z,101070
2023-05-09T12:50:02.487Z,101070
2023-05-09T12:55:10.172Z,101070
2023-05-09T13:00:03.072Z,101060
2023-05-09T13:05:12.723Z,101060
2023-05-09T13:10:00.537Z,101060
2023-05-09T13:15:00.819Z,101060
2023-05-09T13:20:00.626Z,101050
2023-05-09T13:25:00.599Z,101040
2023-05-09T13:30:00.771Z,101040
2023-05-09T13:35:00.767Z,101030
2023-05-09T13:40:01.215Z,101030
2023-05-09T13:45:00.696Z,101030
2023-05-09T13:50:00.531Z,101030
2023-05-09T13:55:00.586Z,101030
2023-05-09T14:00:02.551Z,101020
2023-05-09T14:05:00.590Z,101020
2023-05-09T14:10:11.474Z,101010
2023-05-09T14:20:00.582Z,101010
2023-05-09T14:25:00.590Z,101000
2023-05-09T14:30:00.576Z,101000
2023-05-09T14:35:00.685Z,100990
2023-05-09T14:40:00.596Z,100980
2023-05-09T14:45:00.545Z,100980
2023-05-09T14:50:00.593Z,100970
2023-05-09T14:55:00.584Z,100970
2023-05-09T15:00:16.921Z,100960
2023-05-09T15:05:00.963Z,100950
2023-05-09T15:10:01.036Z,100950
2023-05-09T15:15:11.584Z,100950
2023-05-09T15:20:00.600Z,100940
2023-05-09T15:25:00.667Z,100930
2023-05-09T15:30:00.861Z,100940
2023-05-09T15:35:00.583Z,100930
2023-05-09T15:40:00.898Z,100930
2023-05-09T15:45:00.673Z,100930
2023-05-09T15:50:00.615Z,100920
2023-05-09T15:55:00.630Z,100920
2023-05-09T16:00:02.214Z,100920
2023-05-09T16:05:00.546Z,100910
2023-05-09T16:10:00.589Z,100910
2023-05-09T16:15:00.667Z,100900
2023-05-09T16:20:00.716Z,100900
2023-05-09T16:25:00.547Z,100890
2023-05-09T16:30:00.851Z,100900
2023-05-09T16:35:00.566Z,100890
2023-05-09T16:40:00.819Z,100880
2023-05-09T16:45:00.564Z,100870
2023-05-09T16:50:00.716Z,100870
2023-05-09T16:55:00.581Z,100870
2023-05-09T17:00:01.971Z,100870
2023-05-09T17:05:02.431Z,100870
2023-05-09T17:10:00.566Z,100860
2023-05-09T17:15:00.572Z,100860
2023-05-09T17:20:01.038Z,100860
2023-05-09T17:25:00.566Z,100860
2023-05-09T17:30:01.026Z,100850
2023-05-09T17:35:00.593Z,100850
2023-05-09T17:40:00.888Z,100850
2023-05-09T17:45:00.603Z,100850
2023-05-09T17:50:00.558Z,100850
2023-05-09T17:55:00.564Z,100840
2023-05-09T18:00:01.153Z,100850
2023-05-09T18:05:00.748Z,100850
2023-05-09T18:10:00.854Z,100850
2023-05-09T18:15:01.372Z,100850
2023-05-09T18:20:00.713Z,100850
2023-05-09T18:25:00.540Z,100850
2023-05-09T18:30:00.662Z,100840
2023-05-09T18:35:00.585Z,100840
2023-05-09T18:40:00.594Z,100840
2023-05-09T18:45:00.608Z,100840
2023-05-09T18:50:02.721Z,100840
2023-05-09T18:55:00.583Z,100850
2023-05-09T19:00:01.350Z,100850
2023-05-09T19:05:00.627Z,100850
2023-05-09T19:10:00.791Z,100850
2023-05-09T19:15:01.263Z,100850
2023-05-09T19:20:00.583Z,100850
2023-05-09T19:25:00.625Z,100850
2023-05-09T19:30:00.589Z,100850
2023-05-09T19:35:00.594Z,100850
2023-05-09T19:40:00.712Z,100860
2023-05-09T19:45:00.574Z,100850
2023-05-09T19:50:00.576Z,100860
2023-05-09T19:55:00.552Z,100860
2023-05-09T20:00:01.055Z,100870
2023-05-09T20:05:00.574Z,100870
2023-05-09T20:10:00.521Z,100870
2023-05-09T20:15:00.566Z,100880
2023-05-09T20:20:00.540Z,100880
2023-05-09T20:25:00.548Z,100880
2023-05-09T20:30:01.481Z,100880
2023-05-09T20:35:00.663Z,100890
2023-05-09T20:40:01.607Z,100890
2023-05-09T20:45:01.000Z,100890
2023-05-09T20:50:00.661Z,100890
2023-05-09T20:55:00.568Z,100890
2023-05-09T21:00:01.218Z,100890
2023-05-09T21:05:00.547Z,100890
2023-05-09T21:10:00.551Z,100890
2023-05-09T21:15:00.551Z,100890
2023-05-09T21:20:00.532Z,100880
2023-05-09T21:25:00.574Z,100880
2023-05-09T21:30:00.682Z,100880
2023-05-09T21:35:01.077Z,100880
2023-05-09T21:40:00.341Z,100870
2023-05-09T21:45:00.534Z,100870
2023-05-09T21:50:00.338Z,100870
2023-05-09T21:55:00.321Z,100870
2023-05-09T22:00:00.363Z,100860
2023-05-09T22:05:00.349Z,100860
2023-05-09T22:10:00.486Z,100860
2023-05-09T22:15:00.495Z,100850
2023-05-09T22:20:00.364Z,100860
2023-05-09T22:25:00.376Z,100860
2023-05-09T22:30:00.354Z,100850
2023-05-09T22:35:00.407Z,100850
2023-05-09T22:40:00.314Z,100850
2023-05-09T22:45:00.924Z,100850
2023-05-09T22:50:00.326Z,100850
2023-05-09T22:55:00.334Z,100850
2023-05-09T23:00:00.393Z,100860
2023-05-09T23:05:00.339Z,100860
2023-05-09T23:10:00.335Z,100860
2023-05-09T23:15:00.338Z,100860
2023-05-09T23:20:00.468Z,100860
2023-05-09T23:25:00.353Z,100850
2023-05-09T23:30:00.320Z,100850
2023-05-09T23:35:00.385Z,100850
2023-05-09T23:40:00.379Z,100840
2023-05-09T23:45:00.336Z,100840
2023-05-09T23:50:00.433Z,100840
2023-05-09T23:55:00.371Z,100840
